createdAt,value
2022-11-28T00:01:34.048Z,11.47
2022-11-28T00:04:02.138Z,11.73
2022-11-28T00:06:30.571Z,11.57
2022-11-28T00:08:59.948Z,10.87
2022-11-28T00:11:28.001Z,12.20
2022-11-28T00:13:56.263Z,11.13
2022-11-28T00:16:25.742Z,11.00
2022-11-28T00:18:54.723Z,11.97
2022-11-28T00:21:23.061Z,11.00
2022-11-28T00:23:51.519Z,11.53
2022-11-28T00:26:22.765Z,10.50
2022-11-28T00:28:50.629Z,10.53
2022-11-28T00:31:20.171Z,11.07
2022-11-28T00:33:49.658Z,10.80
2022-11-28T00:36:18.596Z,10.70
2022-11-28T00:38:46.573Z,11.20
2022-11-28T00:41:15.937Z,10.83
2022-11-28T00:43:44.579Z,11.07
2022-11-28T00:46:13.245Z,11.13
2022-11-28T00:48:41.908Z,10.90
2022-11-28T00:51:13.390Z,10.93
2022-11-28T00:53:42.834Z,10.87
2022-11-28T00:56:12.425Z,10.23
2022-11-28T00:58:41.246Z,10.80
2022-11-28T01:01:10.273Z,9.97
2022-11-28T01:03:38.755Z,10.20
2022-11-28T01:06:07.470Z,10.13
2022-11-28T01:08:38.064Z,9.77
2022-11-28T01:11:11.347Z,9.60
2022-11-28T01:13:39.290Z,9.10
2022-11-28T01:16:07.874Z,9.20
2022-11-28T01:18:35.872Z,9.60
2022-11-28T01:21:04.189Z,9.00
2022-11-28T01:23:32.000Z,9.30
2022-11-28T01:26:02.519Z,9.70
2022-11-28T01:28:30.402Z,9.60
2022-11-28T01:30:58.249Z,9.87
2022-11-28T01:33:26.059Z,9.70
2022-11-28T01:35:57.649Z,9.33
2022-11-28T01:38:26.243Z,10.00
2022-11-28T01:40:54.535Z,10.50
2022-11-28T01:43:25.036Z,10.07
2022-11-28T01:45:53.844Z,9.80
2022-11-28T01:48:24.446Z,10.90
2022-11-28T01:50:55.653Z,10.50
2022-11-28T01:53:24.269Z,10.80
2022-11-28T01:55:58.727Z,11.27
2022-11-28T01:58:28.298Z,10.83
2022-11-28T02:00:56.721Z,11.33
2022-11-28T02:03:28.065Z,10.90
2022-11-28T02:05:56.526Z,12.20
2022-11-28T02:08:25.453Z,12.27
2022-11-28T02:11:12.908Z,11.40
2022-11-28T02:13:48.701Z,11.50
2022-11-28T02:16:37.306Z,11.93
2022-11-28T02:19:36.764Z,11.17
2022-11-28T02:22:12.834Z,11.47
2022-11-28T02:25:25.778Z,10.17
2022-11-28T02:28:53.150Z,10.17
2022-11-28T02:31:38.206Z,11.27
2022-11-28T02:34:13.319Z,10.37
2022-11-28T02:36:51.138Z,10.53
2022-11-28T02:39:31.134Z,10.43
2022-11-28T02:42:04.565Z,11.33
2022-11-28T02:44:35.520Z,10.80
2022-11-28T02:47:09.647Z,11.40
2022-11-28T02:49:44.661Z,11.87
2022-11-28T02:52:17.837Z,11.73
2022-11-28T02:54:47.306Z,12.67
2022-11-28T02:57:15.103Z,12.37
2022-11-28T02:59:49.297Z,12.77
2022-11-28T03:02:20.800Z,13.50
2022-11-28T03:05:00.808Z,14.07
2022-11-28T03:07:47.439Z,13.57
2022-11-28T03:10:22.870Z,13.57
2022-11-28T03:12:58.965Z,13.80
2022-11-28T03:15:37.889Z,13.40
2022-11-28T03:18:13.672Z,13.47
2022-11-28T03:20:48.539Z,14.10
2022-11-28T03:23:18.945Z,14.07
2022-11-28T03:25:56.445Z,13.40
2022-11-28T03:28:28.494Z,14.33
2022-11-28T03:31:01.378Z,14.90
2022-11-28T03:33:31.868Z,14.37
2022-11-28T03:36:05.783Z,13.93
2022-11-28T03:38:37.195Z,14.67
2022-11-28T03:41:11.323Z,15.50
2022-11-28T03:43:43.871Z,15.60
2022-11-28T03:46:16.824Z,15.50
2022-11-28T03:48:48.668Z,14.60
2022-11-28T03:51:21.073Z,14.70
2022-11-28T03:53:55.664Z,14.53
2022-11-28T03:56:27.562Z,13.87
2022-11-28T03:59:00.728Z,14.23
2022-11-28T04:01:34.829Z,14.50
2022-11-28T04:04:15.370Z,13.97
2022-11-28T04:06:55.035Z,14.53
2022-11-28T04:09:31.441Z,13.90
2022-11-28T04:12:07.705Z,13.83
2022-11-28T04:14:40.861Z,13.87
2022-11-28T04:17:16.225Z,14.47
2022-11-28T04:19:48.269Z,14.07
2022-11-28T04:22:20.896Z,14.10
2022-11-28T04:24:52.332Z,14.10
2022-11-28T04:27:24.202Z,14.30
2022-11-28T04:29:55.548Z,15.00
2022-11-28T04:32:25.972Z,14.13
2022-11-28T04:34:57.235Z,15.83
2022-11-28T04:37:28.574Z,14.83
2022-11-28T04:39:57.808Z,14.73
2022-11-28T04:42:31.402Z,15.27
2022-11-28T04:45:02.961Z,15.30
2022-11-28T04:47:31.129Z,15.67
2022-11-28T04:49:59.810Z,15.23
2022-11-28T04:52:36.325Z,16.50
2022-11-28T04:55:11.254Z,16.67
2022-11-28T04:57:41.179Z,17.90
2022-11-28T05:00:12.435Z,16.73
2022-11-28T05:02:43.223Z,18.23
2022-11-28T05:05:12.836Z,17.17
2022-11-28T05:07:42.046Z,18.33
2022-11-28T05:10:12.502Z,18.60
2022-11-28T05:12:40.682Z,18.20
2022-11-28T05:15:09.893Z,19.17
2022-11-28T05:17:42.234Z,18.87
2022-11-28T05:20:12.089Z,19.50
2022-11-28T05:22:41.249Z,20.33
2022-11-28T05:25:09.801Z,19.17
2022-11-28T05:27:38.032Z,20.50
2022-11-28T05:30:07.698Z,20.27
2022-11-28T05:32:36.391Z,20.53
2022-11-28T05:35:05.122Z,21.43
2022-11-28T05:37:33.123Z,19.90
2022-11-28T05:40:02.364Z,21.10
2022-11-28T05:42:33.466Z,20.63
2022-11-28T05:45:01.222Z,20.50
2022-11-28T05:47:31.500Z,20.60
2022-11-28T05:49:59.293Z,20.97
2022-11-28T05:52:29.560Z,21.97
2022-11-28T05:54:57.406Z,21.90
2022-11-28T05:57:26.681Z,22.37
2022-11-28T05:59:54.505Z,22.13
2022-11-28T06:02:22.399Z,22.93
2022-11-28T06:04:50.265Z,22.60
2022-11-28T06:07:18.778Z,23.43
2022-11-28T06:09:46.697Z,24.70
2022-11-28T06:12:14.667Z,23.63
2022-11-28T06:14:43.771Z,23.87
2022-11-28T06:17:11.600Z,24.03
2022-11-28T06:19:39.414Z,22.90
2022-11-28T06:22:07.244Z,24.33
2022-11-28T06:24:35.043Z,23.93
2022-11-28T06:27:02.816Z,23.97
2022-11-28T06:29:30.593Z,22.80
2022-11-28T06:31:59.886Z,22.63
2022-11-28T06:34:28.591Z,24.67
2022-11-28T06:36:56.533Z,23.27
2022-11-28T06:39:24.389Z,22.80
2022-11-28T06:41:52.212Z,22.87
2022-11-28T06:44:20.018Z,24.27
2022-11-28T06:46:47.976Z,24.57
2022-11-28T06:49:17.142Z,24.20
2022-11-28T06:51:45.816Z,23.87
2022-11-28T06:54:13.794Z,23.67
2022-11-28T06:56:43.705Z,24.00
2022-11-28T06:59:13.097Z,23.90
2022-11-28T07:01:40.874Z,24.60
2022-11-28T07:04:08.705Z,24.70
2022-11-28T07:06:37.863Z,24.73
2022-11-28T07:09:05.795Z,23.93
2022-11-28T07:11:33.937Z,24.30
2022-11-28T07:14:03.066Z,25.00
2022-11-28T07:16:33.471Z,24.67
2022-11-28T07:19:01.545Z,24.90
2022-11-28T07:21:30.575Z,24.93
2022-11-28T07:24:01.138Z,24.77
2022-11-28T07:26:28.950Z,25.23
2022-11-28T07:28:58.237Z,25.50
2022-11-28T07:31:31.759Z,24.73
2022-11-28T07:34:01.423Z,26.53
2022-11-28T07:36:30.266Z,24.87
2022-11-28T07:39:01.112Z,25.63
2022-11-28T07:41:29.586Z,25.23
2022-11-28T07:43:59.638Z,25.50
2022-11-28T07:46:29.401Z,25.57
2022-11-28T07:48:57.582Z,25.90
2022-11-28T07:51:27.312Z,25.20
2022-11-28T07:53:55.519Z,26.23
2022-11-28T07:56:35.056Z,27.03
2022-11-28T07:59:13.146Z,26.20
2022-11-28T08:01:41.174Z,26.90
2022-11-28T08:04:10.653Z,25.67
2022-11-28T08:06:40.242Z,26.23
2022-11-28T08:09:08.613Z,27.93
2022-11-28T08:11:37.888Z,27.10
2022-11-28T08:14:06.635Z,28.00
2022-11-28T08:16:34.922Z,27.90
2022-11-28T08:19:03.268Z,27.93
2022-11-28T08:21:32.866Z,28.77
2022-11-28T08:24:02.293Z,28.37
2022-11-28T08:26:31.335Z,27.73
2022-11-28T08:29:00.963Z,27.33
2022-11-28T08:31:30.613Z,26.03
2022-11-28T08:34:00.818Z,26.77
2022-11-28T08:36:29.451Z,27.53
2022-11-28T08:39:09.800Z,26.80
2022-11-28T08:41:46.187Z,25.87
2022-11-28T08:44:16.174Z,27.03
2022-11-28T08:46:43.996Z,25.33
2022-11-28T08:49:11.821Z,25.50
2022-11-28T08:51:39.648Z,25.40
2022-11-28T08:54:07.589Z,24.67
2022-11-28T08:56:35.527Z,24.77
2022-11-28T08:59:03.463Z,23.73
2022-11-28T09:01:32.669Z,23.80
2022-11-28T09:04:01.255Z,22.90
2022-11-28T09:06:29.051Z,23.43
2022-11-28T09:08:56.860Z,22.47
2022-11-28T09:11:25.007Z,23.23
2022-11-28T09:13:52.844Z,21.70
2022-11-28T09:16:20.790Z,22.43
2022-11-28T09:18:49.969Z,21.83
2022-11-28T09:21:18.038Z,21.73
2022-11-28T09:23:46.297Z,21.10
2022-11-28T09:26:16.335Z,20.70
2022-11-28T09:28:44.609Z,21.63
2022-11-28T09:31:13.856Z,20.77
2022-11-28T09:33:42.544Z,19.67
2022-11-28T09:36:14.456Z,19.87
2022-11-28T09:38:42.330Z,19.47
2022-11-28T09:41:40.221Z,19.83
2022-11-28T09:44:15.074Z,20.73
2022-11-28T09:46:44.116Z,19.80
2022-11-28T09:49:24.077Z,22.87
2022-11-28T09:51:57.655Z,21.10
2022-11-28T09:56:53.079Z,22.30
2022-11-28T09:59:26.190Z,21.83
2022-11-28T10:02:01.285Z,21.90
2022-11-28T10:04:38.957Z,22.03
2022-11-28T10:07:15.189Z,22.73
2022-11-28T10:09:53.297Z,22.60
2022-11-28T10:12:33.037Z,22.87
2022-11-28T10:15:28.387Z,23.77
2022-11-28T10:18:07.903Z,23.70
2022-11-28T10:20:39.005Z,22.50
2022-11-28T10:23:14.681Z,24.13
2022-11-28T10:25:45.352Z,23.40
2022-11-28T10:28:17.557Z,24.97
2022-11-28T10:30:49.574Z,24.97
2022-11-28T10:33:25.249Z,23.43
2022-11-28T10:35:56.506Z,25.63
2022-11-28T10:38:28.285Z,23.47
2022-11-28T10:41:01.846Z,24.07
2022-11-28T10:43:38.543Z,24.70
2022-11-28T10:46:23.598Z,24.03
2022-11-28T10:48:59.531Z,24.53
2022-11-28T10:51:35.604Z,23.63
2022-11-28T10:54:20.526Z,23.57
2022-11-28T10:56:58.856Z,23.23
2022-11-28T10:59:38.343Z,22.30
2022-11-28T11:02:32.795Z,22.03
2022-11-28T11:05:00.854Z,23.10
2022-11-28T11:07:31.118Z,22.87
2022-11-28T11:10:07.212Z,20.33
2022-11-28T11:12:35.886Z,21.53
2022-11-28T11:15:20.825Z,21.33
2022-11-28T11:17:50.363Z,21.73
2022-11-28T11:20:31.179Z,22.07
2022-11-28T11:23:01.675Z,21.30
2022-11-28T11:25:33.181Z,19.20
2022-11-28T11:28:04.538Z,19.90
2022-11-28T11:30:35.122Z,18.97
2022-11-28T11:33:05.875Z,18.67
2022-11-28T11:35:37.593Z,18.90
2022-11-28T11:38:27.052Z,18.50
2022-11-28T11:40:56.324Z,18.30
2022-11-28T11:43:27.595Z,18.07
2022-11-28T11:46:09.388Z,17.97
2022-11-28T11:48:40.006Z,18.07
2022-11-28T11:51:08.866Z,18.13
2022-11-28T11:53:36.672Z,18.20
2022-11-28T11:56:06.302Z,17.00
2022-11-28T11:58:42.120Z,17.47
2022-11-28T12:01:12.754Z,17.93
2022-11-28T12:03:43.715Z,16.50
2022-11-28T12:06:15.396Z,16.00
2022-11-28T12:08:48.739Z,16.20
2022-11-28T12:11:22.842Z,16.07
2022-11-28T12:13:51.735Z,15.97
2022-11-28T12:16:37.151Z,15.00
2022-11-28T12:19:15.734Z,14.90
2022-11-28T12:21:56.622Z,13.67
2022-11-28T12:24:32.169Z,14.30
2022-11-28T12:27:07.741Z,14.13
2022-11-28T12:29:48.006Z,14.70
2022-11-28T12:32:28.932Z,13.43
2022-11-28T12:35:11.172Z,13.73
2022-11-28T12:38:10.600Z,14.63
2022-11-28T12:40:45.537Z,13.00
2022-11-28T12:43:31.309Z,13.53
2022-11-28T12:46:06.571Z,13.27
2022-11-28T12:48:52.897Z,13.20
2022-11-28T12:51:30.303Z,13.50
2022-11-28T12:54:15.546Z,14.03
2022-11-28T12:56:50.571Z,13.40
2022-11-28T12:59:28.013Z,14.30
2022-11-28T13:02:25.625Z,12.80
2022-11-28T13:05:24.031Z,13.03
2022-11-28T13:08:27.388Z,13.00
2022-11-28T13:11:06.706Z,14.33
2022-11-28T13:13:41.283Z,12.33
2022-11-28T13:16:26.460Z,11.63
2022-11-28T13:19:01.769Z,11.83
2022-11-28T13:21:36.614Z,11.83
2022-11-28T13:24:11.091Z,11.63
2022-11-28T13:26:46.843Z,10.83
2022-11-28T13:29:26.514Z,10.67
2022-11-28T13:32:03.528Z,10.33
2022-11-28T13:34:31.696Z,9.80
2022-11-28T13:40:05.955Z,9.03
2022-11-28T13:45:32.436Z,10.37
2022-11-28T13:48:32.254Z,10.53
2022-11-28T13:51:28.748Z,10.40
2022-11-28T13:54:48.598Z,9.90
2022-11-28T13:57:26.220Z,9.17
2022-11-28T14:00:01.420Z,9.70
2022-11-28T14:02:42.783Z,9.07
2022-11-28T14:05:26.999Z,9.00
2022-11-28T14:07:57.248Z,9.17
2022-11-28T14:10:47.560Z,8.53
2022-11-28T14:13:34.255Z,8.53
2022-11-28T14:16:13.837Z,8.13
2022-11-28T14:19:00.564Z,8.60
2022-11-28T14:21:41.256Z,8.43
2022-11-28T14:24:21.490Z,8.10
2022-11-28T14:27:00.483Z,8.23
2022-11-28T14:29:37.156Z,7.13
2022-11-28T14:32:29.031Z,7.53
2022-11-28T14:34:54.265Z,7.83
2022-11-28T14:37:50.485Z,7.77
2022-11-28T14:41:04.291Z,6.83
2022-11-28T14:43:35.174Z,7.67
2022-11-28T14:46:33.328Z,6.70
2022-11-28T14:49:20.019Z,7.00
2022-11-28T14:52:39.976Z,6.80
2022-11-28T14:55:20.555Z,7.10
2022-11-28T14:57:57.801Z,6.93
2022-11-28T15:00:29.505Z,6.97
2022-11-28T15:03:24.389Z,7.90
2022-11-28T15:05:53.443Z,6.77
2022-11-28T15:08:35.227Z,7.23
2022-11-28T15:11:28.107Z,8.97
2022-11-28T15:14:21.698Z,7.37
2022-11-28T15:16:53.766Z,7.97
2022-11-28T15:19:26.354Z,8.03
2022-11-28T15:21:55.426Z,8.43
2022-11-28T15:24:25.884Z,7.50
2022-11-28T15:26:57.575Z,7.07
2022-11-28T15:29:28.042Z,13.20
2022-11-28T15:31:58.868Z,8.83
2022-11-28T15:34:29.552Z,7.37
2022-11-28T15:36:59.016Z,7.53
2022-11-28T15:39:35.041Z,7.60
2022-11-28T15:42:05.815Z,8.63
2022-11-28T15:44:34.033Z,8.70
2022-11-28T15:47:03.416Z,9.33
2022-11-28T15:49:33.830Z,9.03
2022-11-28T15:52:04.990Z,9.27
2022-11-28T15:54:38.007Z,11.10
2022-11-28T15:57:07.122Z,11.60
2022-11-28T15:59:35.079Z,11.93
2022-11-28T16:02:15.898Z,11.53
2022-11-28T16:04:44.558Z,12.13
2022-11-28T16:07:16.295Z,12.50
2022-11-28T16:09:56.082Z,12.17
2022-11-28T16:12:24.257Z,12.67
2022-11-28T16:14:55.302Z,13.53
2022-11-28T16:17:27.890Z,14.67
2022-11-28T16:19:57.454Z,13.73
2022-11-28T16:22:33.084Z,14.67
2022-11-28T16:25:14.311Z,16.23
2022-11-28T16:27:45.443Z,17.33
2022-11-28T16:30:33.353Z,18.23
2022-11-28T16:33:02.586Z,18.30
2022-11-28T16:35:33.609Z,18.43
2022-11-28T16:38:15.193Z,19.27
2022-11-28T16:40:43.807Z,19.87
2022-11-28T16:43:21.927Z,20.40
2022-11-28T16:45:58.942Z,20.70
2022-11-28T16:48:30.082Z,21.17
2022-11-28T16:51:30.596Z,22.53
2022-11-28T16:53:59.765Z,21.37
2022-11-28T16:56:42.631Z,20.97
2022-11-28T16:59:13.375Z,21.97
2022-11-28T17:01:42.228Z,21.60
2022-11-28T17:04:20.455Z,22.87
2022-11-28T17:06:48.681Z,23.57
2022-11-28T17:09:16.490Z,23.80
2022-11-28T17:11:47.572Z,24.50
2022-11-28T17:14:15.443Z,25.20
2022-11-28T17:16:44.409Z,25.73
2022-11-28T17:19:13.586Z,25.77
2022-11-28T17:21:44.701Z,24.47
2022-11-28T17:24:17.480Z,25.90
2022-11-28T17:26:45.574Z,29.03
2022-11-28T17:29:15.753Z,28.63
2022-11-28T17:31:46.660Z,28.13
2022-11-28T17:34:18.169Z,29.47
2022-11-28T17:36:46.118Z,29.13
2022-11-28T17:39:14.459Z,30.43
2022-11-28T17:41:42.798Z,29.30
2022-11-28T17:44:17.158Z,31.10
2022-11-28T17:46:44.985Z,31.03
2022-11-28T17:49:13.322Z,30.60
2022-11-28T17:51:43.096Z,30.63
2022-11-28T17:54:13.998Z,32.40
2022-11-28T17:56:41.831Z,29.80
2022-11-28T17:59:10.606Z,30.57
2022-11-28T18:01:38.632Z,29.17
2022-11-28T18:04:06.632Z,29.30
2022-11-28T18:06:34.882Z,28.87
2022-11-28T18:09:11.458Z,28.47
2022-11-28T18:11:40.524Z,29.00
2022-11-28T18:14:08.342Z,28.40
2022-11-28T18:16:36.624Z,31.77
2022-11-28T18:19:04.599Z,31.07
2022-11-28T18:21:32.574Z,31.23
2022-11-28T18:24:00.368Z,28.77
2022-11-28T18:26:29.554Z,30.40
2022-11-28T18:28:57.323Z,31.27
2022-11-28T18:31:27.351Z,30.43
2022-11-28T18:34:01.417Z,30.90
2022-11-28T18:36:31.462Z,31.80
2022-11-28T18:39:00.795Z,31.07
2022-11-28T18:41:30.756Z,29.87
2022-11-28T18:44:00.094Z,30.03
2022-11-28T18:46:29.366Z,30.17
2022-11-28T18:48:57.250Z,30.60
2022-11-28T18:51:27.135Z,28.70
2022-11-28T18:53:56.087Z,29.10
2022-11-28T18:56:24.217Z,29.37
2022-11-28T18:58:54.764Z,28.47
2022-11-28T19:01:25.495Z,28.60
2022-11-28T19:03:55.551Z,29.43
2022-11-28T19:06:23.462Z,27.90
2022-11-28T19:08:54.534Z,29.13
2022-11-28T19:11:23.128Z,28.63
2022-11-28T19:13:52.691Z,26.47
2022-11-28T19:16:24.199Z,27.67
2022-11-28T19:18:52.194Z,26.37
2022-11-28T19:21:23.666Z,26.30
2022-11-28T19:23:52.385Z,25.67
2022-11-28T19:26:22.285Z,26.00
2022-11-28T19:28:50.515Z,27.40
2022-11-28T19:31:21.046Z,26.43
2022-11-28T19:34:00.494Z,26.07
2022-11-28T19:36:30.053Z,25.33
2022-11-28T19:38:58.343Z,26.47
2022-11-28T19:41:26.623Z,25.50
2022-11-28T19:43:54.480Z,25.37
2022-11-28T19:46:22.281Z,23.77
2022-11-28T19:48:51.853Z,25.27
2022-11-28T19:51:20.385Z,25.03
2022-11-28T19:53:48.451Z,24.67
2022-11-28T19:56:18.692Z,25.90
2022-11-28T19:58:47.066Z,24.50
2022-11-28T20:01:16.574Z,25.87
2022-11-28T20:03:45.551Z,25.13
2022-11-28T20:06:17.310Z,24.63
2022-11-28T20:08:46.059Z,25.30
2022-11-28T20:11:15.658Z,25.03
2022-11-28T20:13:44.249Z,25.30
2022-11-28T20:16:14.346Z,24.83
2022-11-28T20:18:43.791Z,23.50
2022-11-28T20:21:15.029Z,24.13
2022-11-28T20:23:43.807Z,24.97
2022-11-28T20:26:12.984Z,26.03
2022-11-28T20:28:42.587Z,28.57
2022-11-28T20:31:18.800Z,27.33
2022-11-28T20:33:46.846Z,26.33
2022-11-28T20:36:18.554Z,25.73
2022-11-28T20:38:46.731Z,25.33
2022-11-28T20:41:16.037Z,26.20
2022-11-28T20:43:43.919Z,27.40
2022-11-28T20:46:14.433Z,28.80
2022-11-28T20:48:42.466Z,30.40
2022-11-28T20:51:11.000Z,29.73
2022-11-28T20:53:41.247Z,30.27
2022-11-28T20:56:11.028Z,27.93
2022-11-28T20:58:39.012Z,27.13
2022-11-28T21:01:07.568Z,26.57
2022-11-28T21:03:36.899Z,26.50
2022-11-28T21:06:04.761Z,25.80
2022-11-28T21:08:33.763Z,26.90
2022-11-28T21:11:06.067Z,26.10
2022-11-28T21:13:34.034Z,24.63
2022-11-28T21:16:06.195Z,25.87
2022-11-28T21:18:35.038Z,26.40
2022-11-28T21:21:07.948Z,26.20
2022-11-28T21:23:36.116Z,25.43
2022-11-28T21:26:10.382Z,26.20
2022-11-28T21:28:39.700Z,25.97
2022-11-28T21:31:08.615Z,25.33
2022-11-28T21:33:36.968Z,25.23
2022-11-28T21:36:06.238Z,26.47
2022-11-28T21:38:34.589Z,24.53
2022-11-28T21:41:02.937Z,25.47
2022-11-28T21:43:32.179Z,26.27
2022-11-28T21:46:03.446Z,24.83
2022-11-28T21:48:32.054Z,25.23
2022-11-28T21:51:00.431Z,25.77
2022-11-28T21:53:29.483Z,23.27
2022-11-28T21:55:57.326Z,24.30
2022-11-28T21:58:26.879Z,22.57
2022-11-28T22:00:59.938Z,24.23
2022-11-28T22:03:28.907Z,23.00
2022-11-28T22:06:01.679Z,22.37
2022-11-28T22:08:29.789Z,22.13
2022-11-28T22:11:00.907Z,22.73
2022-11-28T22:13:28.836Z,22.63
2022-11-28T22:15:57.065Z,22.83
2022-11-28T22:18:26.268Z,22.10
2022-11-28T22:21:02.087Z,21.90
2022-11-28T22:23:30.098Z,21.83
2022-11-28T22:25:57.847Z,21.53
2022-11-28T22:28:25.690Z,22.03
2022-11-28T22:30:53.517Z,21.50
2022-11-28T22:33:21.357Z,21.47
2022-11-28T22:35:50.491Z,22.03
2022-11-28T22:38:18.472Z,20.90
2022-11-28T22:40:46.302Z,21.03
2022-11-28T22:43:14.195Z,20.90
2022-11-28T22:45:42.047Z,20.00
2022-11-28T22:48:10.044Z,21.00
2022-11-28T22:50:40.447Z,20.47
2022-11-28T22:53:09.629Z,19.50
2022-11-28T22:55:37.455Z,20.00
2022-11-28T22:58:05.250Z,20.80
2022-11-28T23:00:33.094Z,19.07
2022-11-28T23:03:01.026Z,20.67
2022-11-28T23:05:28.874Z,19.67
2022-11-28T23:07:56.735Z,19.93
2022-11-28T23:10:25.946Z,20.00
2022-11-28T23:12:54.186Z,20.30
2022-11-28T23:18:07.611Z,20.10
2022-11-28T23:20:35.396Z,20.07
2022-11-28T23:23:03.187Z,18.50
2022-11-28T23:25:32.304Z,18.33
2022-11-28T23:28:00.086Z,18.93
2022-11-28T23:30:27.907Z,18.53
2022-11-28T23:32:55.698Z,20.13
2022-11-28T23:35:23.512Z,19.93
2022-11-28T23:37:51.275Z,19.30
2022-11-28T23:40:19.208Z,19.73
2022-11-28T23:42:48.452Z,19.53
2022-11-28T23:45:16.417Z,19.80
2022-11-28T23:47:44.198Z,18.67
2022-11-28T23:50:12.261Z,20.33
2022-11-28T23:52:40.084Z,18.70
2022-11-28T23:55:08.799Z,20.60
2022-11-28T23:57:36.628Z,18.30
